Time;durP1;ratioP1;P1;durP2;ratioP2;P2;SDS_P1;SDS_P2;PMS_P1;PMS_P2;Temp;Humidity;BMP_temperature;BMP_pressure;BME280_temperature;BME280_humidity;BME280_pressure;Samples;Min_cycle;Max_cycle;Signal;HPM_P1;HPM_P2
2021/05/26 00:01:33;;;;;;;7.53;3.97;;;;;;;;;;5051467;28;20408;-52
2021/05/26 00:03:59;;;;;;;5.93;3.20;;;;;;;;;;5051404;28;20865;-52
2021/05/26 00:06:25;;;;;;;7.40;4.07;;;;;;;;;;5051470;28;20401;-52
2021/05/26 00:08:51;;;;;;;3.67;3.27;;;;;;;;;;5051011;28;20475;-52
2021/05/26 00:11:18;;;;;;;6.40;3.90;;;;;;;;;;5051352;28;20401;-52
2021/05/26 00:13:44;;;;;;;4.40;3.50;;;;;;;;;;5051305;28;20413;-52
2021/05/26 00:16:10;;;;;;;6.43;3.33;;;;;;;;;;5051347;28;20491;-52
2021/05/26 00:18:36;;;;;;;3.13;2.93;;;;;;;;;;5051119;28;20425;-52
2021/05/26 00:21:03;;;;;;;7.40;3.30;;;;;;;;;;5051200;28;20477;-52
2021/05/26 00:23:30;;;;;;;8.27;3.60;;;;;;;;;;5050987;28;20963;-51
2021/05/26 00:25:55;;;;;;;3.60;3.20;;;;;;;;;;5051306;28;20408;-52
2021/05/26 00:28:21;;;;;;;3.23;3.10;;;;;;;;;;5051198;28;20806;-52
2021/05/26 00:30:52;;;;;;;4.37;3.60;;;;;;;;;;5051118;28;20816;-51
2021/05/26 00:33:18;;;;;;;4.70;3.13;;;;;;;;;;5050909;28;20438;-52
2021/05/26 00:35:45;;;;;;;5.60;3.00;;;;;;;;;;5051083;28;20539;-52
2021/05/26 00:38:11;;;;;;;3.97;2.90;;;;;;;;;;5051520;28;20564;-51
2021/05/26 00:40:37;;;;;;;5.83;3.77;;;;;;;;;;5066514;28;20439;-52
2021/05/26 00:43:03;;;;;;;4.70;3.20;;;;;;;;;;5050911;28;20409;-52
2021/05/26 00:45:29;;;;;;;7.33;3.57;;;;;;;;;;5050986;28;20404;-51
2021/05/26 00:47:55;;;;;;;7.10;3.80;;;;;;;;;;5050726;28;20451;-51
2021/05/26 00:50:23;;;;;;;12.20;3.67;;;;;;;;;;5050934;28;20847;-51
2021/05/26 00:52:50;;;;;;;5.00;3.30;;;;;;;;;;5050611;28;20527;-52
2021/05/26 00:55:17;;;;;;;4.47;3.27;;;;;;;;;;5050722;28;20398;-52
2021/05/26 00:57:43;;;;;;;3.40;3.20;;;;;;;;;;5050569;28;20422;-52
2021/05/26 01:00:13;;;;;;;4.07;3.67;;;;;;;;;;5050760;28;20399;-52
2021/05/26 01:02:39;;;;;;;3.77;3.37;;;;;;;;;;5049385;28;20394;-51
2021/05/26 01:05:06;;;;;;;8.23;3.07;;;;;;;;;;5065537;28;20943;-52
2021/05/26 01:07:32;;;;;;;5.43;3.07;;;;;;;;;;5050337;28;20421;-51
2021/05/26 01:09:58;;;;;;;4.03;3.43;;;;;;;;;;5050587;28;20777;-52
2021/05/26 01:12:25;;;;;;;3.87;3.30;;;;;;;;;;5050108;28;20440;-52
2021/05/26 01:14:51;;;;;;;4.60;3.90;;;;;;;;;;5050572;28;20403;-52
2021/05/26 01:17:17;;;;;;;4.00;3.17;;;;;;;;;;5050260;28;20460;-52
2021/05/26 01:19:43;;;;;;;6.23;3.47;;;;;;;;;;5050470;28;20402;-52
2021/05/26 01:22:09;;;;;;;4.90;4.03;;;;;;;;;;5054011;28;20438;-51
2021/05/26 01:24:35;;;;;;;4.80;3.00;;;;;;;;;;5069842;28;20412;-51
2021/05/26 01:27:02;;;;;;;7.10;4.00;;;;;;;;;;5054515;28;20409;-52
2021/05/26 01:29:28;;;;;;;4.93;4.10;;;;;;;;;;5054299;28;20421;-51
2021/05/26 01:31:54;;;;;;;6.20;3.80;;;;;;;;;;5054276;28;20411;-51
2021/05/26 01:34:21;;;;;;;7.67;4.07;;;;;;;;;;5054391;28;20531;-52
2021/05/26 01:36:47;;;;;;;5.87;3.70;;;;;;;;;;5054351;28;20453;-51
2021/05/26 01:39:15;;;;;;;6.27;3.90;;;;;;;;;;5054078;28;20764;-52
2021/05/26 01:41:41;;;;;;;5.90;4.30;;;;;;;;;;5054108;28;20458;-52
2021/05/26 01:44:07;;;;;;;12.03;5.60;;;;;;;;;;5054068;28;20908;-51
2021/05/26 01:46:33;;;;;;;7.67;4.87;;;;;;;;;;5053837;28;20897;-52
2021/05/26 01:48:59;;;;;;;8.60;4.67;;;;;;;;;;5054210;28;20493;-51
2021/05/26 01:51:25;;;;;;;9.60;4.33;;;;;;;;;;5053765;28;20431;-52
2021/05/26 01:53:52;;;;;;;6.83;5.00;;;;;;;;;;5054028;28;20439;-51
2021/05/26 01:56:19;;;;;;;7.63;5.27;;;;;;;;;;5053788;28;20459;-51
2021/05/26 01:58:45;;;;;;;7.17;5.27;;;;;;;;;;5054340;28;20429;-52
2021/05/26 02:01:11;;;;;;;5.97;5.37;;;;;;;;;;5053891;28;20483;-51
2021/05/26 02:03:40;;;;;;;10.07;5.30;;;;;;;;;;5053803;28;20460;-52
2021/05/26 02:06:07;;;;;;;8.57;5.33;;;;;;;;;;5053969;28;20439;-52
2021/05/26 02:08:33;;;;;;;10.20;5.00;;;;;;;;;;5053802;28;20425;-51
2021/05/26 02:13:44;;;;;;;10.23;5.33;;;;;;;;;;5054191;28;20396;-52
2021/05/26 02:16:10;;;;;;;11.47;5.20;;;;;;;;;;5053678;28;20452;-52
2021/05/26 02:18:36;;;;;;;10.33;5.57;;;;;;;;;;5053767;28;20449;-52
2021/05/26 02:21:02;;;;;;;10.40;5.47;;;;;;;;;;5053884;28;20401;-51
2021/05/26 02:23:28;;;;;;;14.23;4.80;;;;;;;;;;5053597;28;20405;-52
2021/05/26 02:25:53;;;;;;;5.47;4.90;;;;;;;;;;5053674;28;20395;-52
2021/05/26 02:28:19;;;;;;;12.03;5.03;;;;;;;;;;5053543;28;20428;-51
2021/05/26 02:30:45;;;;;;;11.17;6.00;;;;;;;;;;5053611;28;20408;-52
2021/05/26 02:33:11;;;;;;;6.63;4.90;;;;;;;;;;5052790;28;20492;-51
2021/05/26 02:35:37;;;;;;;12.07;5.60;;;;;;;;;;5053338;28;20456;-51
2021/05/26 02:38:04;;;;;;;13.80;5.33;;;;;;;;;;5053168;28;20445;-52
2021/05/26 02:40:33;;;;;;;7.70;5.30;;;;;;;;;;5053203;28;20401;-51
2021/05/26 02:42:59;;;;;;;6.47;4.93;;;;;;;;;;5053144;28;20401;-52
2021/05/26 02:45:25;;;;;;;6.90;4.10;;;;;;;;;;5053227;28;20477;-51
2021/05/26 02:47:51;;;;;;;8.53;4.67;;;;;;;;;;5052923;28;20520;-51
2021/05/26 02:50:17;;;;;;;13.20;4.60;;;;;;;;;;5053033;28;20405;-51
2021/05/26 02:52:44;;;;;;;13.07;5.00;;;;;;;;;;5052784;28;20816;-51
2021/05/26 02:55:10;;;;;;;9.90;4.90;;;;;;;;;;5052582;28;20435;-51
2021/05/26 02:57:36;;;;;;;11.43;5.10;;;;;;;;;;5052760;28;20951;-51
2021/05/26 03:00:03;;;;;;;14.60;5.50;;;;;;;;;;5052713;28;20401;-51
2021/05/26 03:02:29;;;;;;;8.23;5.07;;;;;;;;;;5052660;28;20405;-51
2021/05/26 03:04:55;;;;;;;9.60;5.07;;;;;;;;;;5052736;28;20402;-52
2021/05/26 03:07:21;;;;;;;11.33;4.73;;;;;;;;;;5052629;28;20495;-52
2021/05/26 03:09:47;;;;;;;7.80;4.90;;;;;;;;;;5052422;28;20405;-51
2021/05/26 03:12:13;;;;;;;12.90;5.70;;;;;;;;;;5052446;28;20401;-51
2021/05/26 03:14:39;;;;;;;10.50;5.97;;;;;;;;;;5052457;28;20880;-51
2021/05/26 03:17:05;;;;;;;9.13;5.20;;;;;;;;;;5052376;28;20457;-51
2021/05/26 03:19:31;;;;;;;11.53;4.43;;;;;;;;;;5052488;28;20504;-51
2021/05/26 03:21:57;;;;;;;10.10;4.80;;;;;;;;;;5051959;28;20496;-51
2021/05/26 03:24:23;;;;;;;13.83;6.27;;;;;;;;;;5052246;28;20516;-51
2021/05/26 03:26:49;;;;;;;6.50;5.10;;;;;;;;;;5052397;28;20405;-51
2021/05/26 03:29:15;;;;;;;8.00;5.40;;;;;;;;;;5052236;28;20428;-52
2021/05/26 03:31:41;;;;;;;12.97;5.90;;;;;;;;;;5051970;28;20793;-51
2021/05/26 03:34:07;;;;;;;14.90;5.37;;;;;;;;;;5052136;28;20412;-51
2021/05/26 03:36:33;;;;;;;8.77;5.57;;;;;;;;;;5051889;28;20937;-51
2021/05/26 03:38:59;;;;;;;13.23;6.10;;;;;;;;;;5051986;28;20427;-52
2021/05/26 03:41:25;;;;;;;17.00;5.50;;;;;;;;;;5051723;28;20404;-51
2021/05/26 03:43:51;;;;;;;12.90;5.30;;;;;;;;;;5051353;28;20973;-51
2021/05/26 03:46:17;;;;;;;9.70;5.30;;;;;;;;;;5051856;28;20823;-51
2021/05/26 03:48:43;;;;;;;13.80;5.13;;;;;;;;;;5067098;28;20433;-51
2021/05/26 03:51:09;;;;;;;17.60;5.83;;;;;;;;;;5051868;28;20759;-51
2021/05/26 03:53:35;;;;;;;11.73;5.03;;;;;;;;;;5066704;28;20844;-52
2021/05/26 03:56:01;;;;;;;12.80;6.33;;;;;;;;;;5051704;28;20452;-51
2021/05/26 03:58:27;;;;;;;10.43;5.00;;;;;;;;;;5051527;28;20417;-51
2021/05/26 04:00:53;;;;;;;12.87;5.60;;;;;;;;;;5051750;28;20400;-51
2021/05/26 04:03:19;;;;;;;9.57;5.23;;;;;;;;;;5051333;28;20401;-51
2021/05/26 04:05:45;;;;;;;14.60;9.73;;;;;;;;;;5051603;28;20936;-51
2021/05/26 04:08:12;;;;;;;15.37;5.47;;;;;;;;;;5051404;28;20456;-51
2021/05/26 04:10:38;;;;;;;9.90;5.53;;;;;;;;;;5066928;28;20414;-51
2021/05/26 04:13:04;;;;;;;11.17;4.83;;;;;;;;;;5051190;28;20414;-51
2021/05/26 04:15:30;;;;;;;9.13;6.17;;;;;;;;;;5051439;28;20459;-51
2021/05/26 04:17:56;;;;;;;9.20;5.60;;;;;;;;;;5051382;28;20417;-51
2021/05/26 04:20:22;;;;;;;10.63;6.13;;;;;;;;;;5051221;28;20896;-51
2021/05/26 04:22:48;;;;;;;14.20;5.80;;;;;;;;;;5051319;28;20458;-51
2021/05/26 04:25:14;;;;;;;7.27;5.40;;;;;;;;;;5051306;28;20769;-51
2021/05/26 04:27:40;;;;;;;8.73;6.20;;;;;;;;;;5051536;28;20450;-51
2021/05/26 04:30:06;;;;;;;18.47;6.27;;;;;;;;;;5051396;28;20412;-51
2021/05/26 04:32:32;;;;;;;12.17;5.93;;;;;;;;;;5051142;28;20473;-51
2021/05/26 04:34:58;;;;;;;12.37;4.63;;;;;;;;;;5050957;28;20485;-51
2021/05/26 04:37:24;;;;;;;9.03;5.23;;;;;;;;;;5050930;28;20457;-51
2021/05/26 04:39:50;;;;;;;8.60;4.43;;;;;;;;;;5050958;28;20393;-51
2021/05/26 04:42:16;;;;;;;11.50;5.17;;;;;;;;;;5050801;28;20932;-51
2021/05/26 04:44:42;;;;;;;18.17;4.80;;;;;;;;;;5066454;28;20449;-51
2021/05/26 04:47:07;;;;;;;11.00;5.00;;;;;;;;;;5050647;28;20453;-51
2021/05/26 04:49:33;;;;;;;11.93;4.80;;;;;;;;;;5050758;28;20439;-51
2021/05/26 04:51:59;;;;;;;8.70;4.93;;;;;;;;;;5050466;28;20402;-51
2021/05/26 04:54:26;;;;;;;11.57;5.30;;;;;;;;;;5050386;28;20409;-51
2021/05/26 04:56:52;;;;;;;6.17;4.70;;;;;;;;;;5050014;28;20548;-51
2021/05/26 04:59:18;;;;;;;8.90;4.87;;;;;;;;;;5050686;28;20852;-51
2021/05/26 05:01:44;;;;;;;6.83;4.03;;;;;;;;;;5050379;28;20406;-51
2021/05/26 05:04:10;;;;;;;8.57;4.80;;;;;;;;;;5049280;28;20409;-51
2021/05/26 05:06:36;;;;;;;12.70;4.73;;;;;;;;;;5050500;28;20894;-51
2021/05/26 05:09:02;;;;;;;5.83;3.83;;;;;;;;;;5050529;28;20924;-51
2021/05/26 05:11:28;;;;;;;8.87;3.40;;;;;;;;;;5050464;28;20406;-51
2021/05/26 05:13:54;;;;;;;5.60;3.70;;;;;;;;;;5050386;28;20746;-51
2021/05/26 05:16:20;;;;;;;4.80;3.70;;;;;;;;;;5050550;28;20454;-51
2021/05/26 05:18:46;;;;;;;5.23;3.17;;;;;;;;;;5050271;28;20424;-51
2021/05/26 05:21:12;;;;;;;7.20;4.50;;;;;;;;;;5050376;28;20401;-51
2021/05/26 05:23:38;;;;;;;5.87;4.00;;;;;;;;;;5050425;28;20457;-50
2021/05/26 05:26:04;;;;;;;6.60;4.40;;;;;;;;;;5050459;28;20401;-51
2021/05/26 05:28:30;;;;;;;7.10;4.33;;;;;;;;;;5050849;28;20844;-51
2021/05/26 05:30:56;;;;;;;8.33;4.27;;;;;;;;;;5050486;28;20420;-50
2021/05/26 05:33:22;;;;;;;8.57;4.50;;;;;;;;;;5049940;28;20409;-50
2021/05/26 05:35:48;;;;;;;9.50;4.60;;;;;;;;;;5050364;28;20456;-51
2021/05/26 05:38:14;;;;;;;9.40;4.47;;;;;;;;;;5050179;28;20516;-50
2021/05/26 05:40:42;;;;;;;9.23;4.30;;;;;;;;;;5050403;28;20397;-51
2021/05/26 05:43:09;;;;;;;5.10;4.60;;;;;;;;;;5050133;28;20401;-51
2021/05/26 05:45:35;;;;;;;8.27;4.90;;;;;;;;;;5050219;28;20455;-50
2021/05/26 05:48:01;;;;;;;7.27;4.63;;;;;;;;;;5050162;28;20869;-51
2021/05/26 05:50:27;;;;;;;8.10;4.20;;;;;;;;;;5050055;28;20416;-51
2021/05/26 05:52:53;;;;;;;8.23;4.50;;;;;;;;;;5050246;28;20550;-50
2021/05/26 05:55:19;;;;;;;7.63;4.43;;;;;;;;;;5050123;28;20898;-51
2021/05/26 05:57:45;;;;;;;4.33;4.03;;;;;;;;;;5050141;28;20981;-51
2021/05/26 06:00:11;;;;;;;6.00;4.50;;;;;;;;;;5050111;28;20397;-51
2021/05/26 06:02:37;;;;;;;9.37;6.43;;;;;;;;;;5049133;28;20459;-50
2021/05/26 06:05:03;;;;;;;7.13;4.27;;;;;;;;;;5049534;28;20409;-50
2021/05/26 06:07:30;;;;;;;5.83;4.20;;;;;;;;;;5051854;28;20627;-51
2021/05/26 06:09:56;;;;;;;7.97;4.30;;;;;;;;;;5053463;28;20406;-51
2021/05/26 06:12:22;;;;;;;3.83;3.53;;;;;;;;;;5052860;28;20401;-51
2021/05/26 06:14:48;;;;;;;6.93;4.10;;;;;;;;;;5053253;28;20933;-50
2021/05/26 06:17:14;;;;;;;4.37;3.97;;;;;;;;;;5052823;28;20460;-51
2021/05/26 06:19:40;;;;;;;7.20;4.40;;;;;;;;;;5053181;28;20797;-50
2021/05/26 06:22:06;;;;;;;4.83;3.00;;;;;;;;;;5053550;28;20463;-51
2021/05/26 06:24:32;;;;;;;8.03;3.57;;;;;;;;;;5053471;28;20398;-50
2021/05/26 06:26:58;;;;;;;8.43;3.50;;;;;;;;;;5053399;28;20488;-51
2021/05/26 06:29:24;;;;;;;3.73;2.93;;;;;;;;;;5053393;28;20422;-50
2021/05/26 06:31:50;;;;;;;5.23;3.10;;;;;;;;;;5053016;28;20413;-50
2021/05/26 06:34:16;;;;;;;6.17;3.00;;;;;;;;;;5053184;28;20444;-51
2021/05/26 06:36:42;;;;;;;7.33;3.60;;;;;;;;;;5053212;28;20492;-51
2021/05/26 06:39:08;;;;;;;4.03;2.67;;;;;;;;;;5053092;28;20500;-51
2021/05/26 06:41:34;;;;;;;3.33;3.03;;;;;;;;;;5053009;28;20401;-50
2021/05/26 06:44:00;;;;;;;3.17;2.80;;;;;;;;;;5052882;28;20410;-51
2021/05/26 06:46:26;;;;;;;4.33;3.33;;;;;;;;;;5052927;28;20622;-51
2021/05/26 06:48:52;;;;;;;2.87;2.40;;;;;;;;;;5052920;28;20527;-51
2021/05/26 06:51:18;;;;;;;2.87;2.70;;;;;;;;;;5052863;28;20861;-51
2021/05/26 06:53:44;;;;;;;2.80;2.50;;;;;;;;;;5052824;28;20406;-51
2021/05/26 06:56:10;;;;;;;6.30;2.93;;;;;;;;;;5052884;28;20481;-50
2021/05/26 06:58:38;;;;;;;3.70;3.13;;;;;;;;;;5052717;28;20758;-51
2021/05/26 07:01:04;;;;;;;3.33;2.67;;;;;;;;;;5052888;28;20393;-51
2021/05/26 07:03:30;;;;;;;2.60;2.40;;;;;;;;;;5052524;28;20423;-51
2021/05/26 07:05:56;;;;;;;3.80;2.80;;;;;;;;;;5052615;28;20456;-50
2021/05/26 07:08:22;;;;;;;3.80;2.50;;;;;;;;;;5052689;28;20433;-51
2021/05/26 07:10:48;;;;;;;2.23;2.10;;;;;;;;;;5052518;28;20418;-51
2021/05/26 07:13:14;;;;;;;5.60;2.43;;;;;;;;;;5052347;28;20436;-50
2021/05/26 07:15:40;;;;;;;4.07;2.60;;;;;;;;;;5052298;28;21025;-50
2021/05/26 07:18:07;;;;;;;4.97;3.30;;;;;;;;;;5051620;28;20449;-50
2021/05/26 07:20:33;;;;;;;2.70;2.50;;;;;;;;;;5052463;28;20979;-50
2021/05/26 07:23:00;;;;;;;7.00;2.57;;;;;;;;;;5067511;28;20989;-50
2021/05/26 07:25:26;;;;;;;3.00;2.77;;;;;;;;;;5052299;28;20406;-50
2021/05/26 07:27:52;;;;;;;2.40;2.20;;;;;;;;;;5052126;28;20471;-50
2021/05/26 07:30:19;;;;;;;3.83;2.13;;;;;;;;;;5052137;28;20435;-51
2021/05/26 07:32:45;;;;;;;3.63;2.40;;;;;;;;;;5052276;28;20793;-51
2021/05/26 07:35:11;;;;;;;3.07;2.27;;;;;;;;;;5052257;28;20481;-50
2021/05/26 07:37:39;;;;;;;3.43;2.33;;;;;;;;;;5051914;28;20459;-51
2021/05/26 07:40:06;;;;;;;2.80;2.60;;;;;;;;;;5052138;28;20408;-50
2021/05/26 07:42:32;;;;;;;2.70;2.50;;;;;;;;;;5051610;28;20954;-50
2021/05/26 07:44:58;;;;;;;3.23;2.20;;;;;;;;;;5052111;28;20547;-51
2021/05/26 07:47:24;;;;;;;2.53;2.33;;;;;;;;;;5051631;28;20477;-50
2021/05/26 07:49:50;;;;;;;3.30;2.90;;;;;;;;;;5052066;28;20774;-50
2021/05/26 07:52:19;;;;;;;5.10;2.60;;;;;;;;;;5051665;28;20510;-50
2021/05/26 07:54:46;;;;;;;2.47;2.33;;;;;;;;;;5053137;28;20464;-50
2021/05/26 07:57:12;;;;;;;6.47;2.47;;;;;;;;;;5053527;28;20958;-50
2021/05/26 07:59:38;;;;;;;2.80;2.40;;;;;;;;;;5051837;28;20458;-50
2021/05/26 08:02:04;;;;;;;2.33;2.10;;;;;;;;;;5051418;28;20404;-50
2021/05/26 08:04:30;;;;;;;2.50;2.40;;;;;;;;;;5049864;28;20486;-50
2021/05/26 08:06:56;;;;;;;3.43;2.10;;;;;;;;;;5049734;28;20405;-50
2021/05/26 08:09:22;;;;;;;2.43;2.23;;;;;;;;;;5049706;28;20470;-50
2021/05/26 08:11:48;;;;;;;4.60;2.60;;;;;;;;;;5050640;28;20877;-50
2021/05/26 08:14:14;;;;;;;6.93;2.70;;;;;;;;;;5051299;28;20416;-50
2021/05/26 08:16:40;;;;;;;2.53;2.33;;;;;;;;;;5051606;28;20543;-50
2021/05/26 08:19:06;;;;;;;4.47;2.30;;;;;;;;;;5051402;28;20456;-50
2021/05/26 08:21:32;;;;;;;7.13;3.27;;;;;;;;;;5051403;28;20405;-50
2021/05/26 08:23:58;;;;;;;3.70;2.80;;;;;;;;;;5051185;28;20896;-50
2021/05/26 08:26:24;;;;;;;2.60;2.40;;;;;;;;;;5051236;28;20876;-50
2021/05/26 08:28:52;;;;;;;2.67;2.47;;;;;;;;;;5051174;28;20431;-50
2021/05/26 08:31:18;;;;;;;3.73;2.20;;;;;;;;;;5050670;28;20410;-50
2021/05/26 08:33:44;;;;;;;3.40;2.20;;;;;;;;;;5051082;28;20377;-50
2021/05/26 08:36:10;;;;;;;4.07;2.67;;;;;;;;;;5050889;28;20419;-50
2021/05/26 08:38:38;;;;;;;2.27;2.17;;;;;;;;;;5050908;28;20555;-50
2021/05/26 08:41:07;;;;;;;6.87;2.20;;;;;;;;;;5051146;28;20433;-51
2021/05/26 08:43:42;;;;;;;2.80;2.10;;;;;;;;;;5050713;28;20895;-50
2021/05/26 08:46:09;;;;;;;3.03;2.20;;;;;;;;;;5050724;28;20978;-51
2021/05/26 08:48:35;;;;;;;4.60;2.13;;;;;;;;;;5050648;28;20915;-50
2021/05/26 08:51:02;;;;;;;2.53;2.13;;;;;;;;;;5050687;28;20372;-50
2021/05/26 08:53:28;;;;;;;2.40;2.20;;;;;;;;;;5050522;28;20463;-50
2021/05/26 08:55:54;;;;;;;2.90;2.30;;;;;;;;;;5050719;28;20430;-50
2021/05/26 08:58:20;;;;;;;2.60;2.40;;;;;;;;;;5050542;28;20953;-50
2021/05/26 09:00:47;;;;;;;4.50;2.37;;;;;;;;;;5050631;28;20410;-50
2021/05/26 09:03:13;;;;;;;2.27;2.17;;;;;;;;;;5050385;28;20459;-50
2021/05/26 09:05:39;;;;;;;2.40;2.20;;;;;;;;;;5050693;28;20387;-50
2021/05/26 09:08:18;;;;;;;2.30;2.20;;;;;;;;;;5050173;28;20511;-50
2021/05/26 09:10:52;;;;;;;4.23;3.00;;;;;;;;;;5050716;28;20429;-50
2021/05/26 09:13:31;;;;;;;2.93;2.63;;;;;;;;;;5050163;28;20463;-50
2021/05/26 09:15:58;;;;;;;3.00;2.70;;;;;;;;;;5050461;28;20457;-51
2021/05/26 09:18:24;;;;;;;3.30;3.00;;;;;;;;;;5050190;28;20508;-50
2021/05/26 09:20:50;;;;;;;4.27;3.10;;;;;;;;;;5050483;28;20429;-49
2021/05/26 09:23:18;;;;;;;3.67;3.27;;;;;;;;;;5049985;28;20397;-50
2021/05/26 09:25:44;;;;;;;3.30;3.00;;;;;;;;;;5050455;28;20885;-50
2021/05/26 09:28:16;;;;;;;3.57;3.30;;;;;;;;;;5050347;28;20433;-50
2021/05/26 09:30:42;;;;;;;3.80;3.50;;;;;;;;;;5050148;28;20401;-50
2021/05/26 09:33:26;;;;;;;3.77;3.00;;;;;;;;;;5050049;28;20426;-50
2021/05/26 09:36:19;;;;;;;4.20;3.50;;;;;;;;;;5050106;28;20999;-50
2021/05/26 09:38:48;;;;;;;3.17;2.93;;;;;;;;;;5047749;28;20458;-50
2021/05/26 09:41:16;;;;;;;2.90;2.70;;;;;;;;;;5050275;28;20393;-50
2021/05/26 09:43:43;;;;;;;3.17;2.87;;;;;;;;;;5054200;28;20871;-50
2021/05/26 09:46:18;;;;;;;3.30;3.00;;;;;;;;;;5054257;28;20418;-50
2021/05/26 09:48:58;;;;;;;3.70;3.40;;;;;;;;;;5054160;28;20430;-50
2021/05/26 09:51:28;;;;;;;2.77;2.57;;;;;;;;;;5053885;28;20396;-50
2021/05/26 09:54:07;;;;;;;3.20;3.00;;;;;;;;;;5053960;28;20426;-50
2021/05/26 09:56:33;;;;;;;2.83;2.63;;;;;;;;;;5053845;28;20423;-51
2021/05/26 09:59:01;;;;;;;4.27;3.87;;;;;;;;;;5053909;28;20504;-51
2021/05/26 10:01:27;;;;;;;3.13;3.03;;;;;;;;;;5053628;28;20433;-50
2021/05/26 10:03:53;;;;;;;3.27;2.93;;;;;;;;;;5053314;28;20445;-50
2021/05/26 10:06:19;;;;;;;2.60;2.47;;;;;;;;;;5051755;28;20892;-51
2021/05/26 10:08:46;;;;;;;3.20;2.73;;;;;;;;;;5053646;28;20413;-51
2021/05/26 10:11:12;;;;;;;3.97;2.80;;;;;;;;;;5053828;28;20382;-50
2021/05/26 10:13:38;;;;;;;2.87;2.67;;;;;;;;;;5058056;28;20392;-50
2021/05/26 10:16:04;;;;;;;2.90;2.70;;;;;;;;;;5054079;28;20439;-49
2021/05/26 10:18:31;;;;;;;3.93;3.10;;;;;;;;;;5053713;28;20417;-50
2021/05/26 10:20:57;;;;;;;3.23;2.93;;;;;;;;;;5053961;28;20401;-50
2021/05/26 10:23:23;;;;;;;2.80;2.60;;;;;;;;;;5053211;28;20380;-49
2021/05/26 10:25:53;;;;;;;2.40;2.20;;;;;;;;;;5053565;28;20405;-49
2021/05/26 10:28:32;;;;;;;3.07;2.93;;;;;;;;;;5053228;28;20421;-49
2021/05/26 10:30:59;;;;;;;2.00;1.90;;;;;;;;;;5053459;28;20400;-49
2021/05/26 10:33:44;;;;;;;2.37;2.07;;;;;;;;;;5052987;28;20421;-49
2021/05/26 10:36:14;;;;;;;2.13;1.90;;;;;;;;;;5053275;28;20538;-49
2021/05/26 10:39:00;;;;;;;2.30;1.50;;;;;;;;;;5053239;28;20417;-50
2021/05/26 10:41:55;;;;;;;1.93;1.80;;;;;;;;;;5053082;28;20376;-50
2021/05/26 10:44:22;;;;;;;2.20;1.77;;;;;;;;;;5047116;28;21174;-50
2021/05/26 10:46:49;;;;;;;2.00;1.90;;;;;;;;;;5052961;28;20835;-50
2021/05/26 10:49:15;;;;;;;5.20;1.80;;;;;;;;;;5053104;28;20395;-50
2021/05/26 10:51:53;;;;;;;2.23;1.63;;;;;;;;;;5052587;28;20384;-50
2021/05/26 10:54:38;;;;;;;2.17;1.60;;;;;;;;;;5052786;28;20470;-50
2021/05/26 10:57:04;;;;;;;2.90;1.70;;;;;;;;;;5052729;28;20478;-50
2021/05/26 10:59:30;;;;;;;1.77;1.67;;;;;;;;;;5052939;28;20767;-49
2021/05/26 11:02:06;;;;;;;2.60;1.90;;;;;;;;;;5052565;28;20410;-49
2021/05/26 11:04:32;;;;;;;3.20;2.00;;;;;;;;;;5052604;28;20397;-49
2021/05/26 11:07:36;;;;;;;1.50;1.40;;;;;;;;;;5052723;28;20471;-49
2021/05/26 11:10:04;;;;;;;2.17;1.30;;;;;;;;;;5030244;28;20418;-50
2021/05/26 11:12:50;;;;;;;1.40;1.30;;;;;;;;;;5048433;28;20425;-50
2021/05/26 11:15:35;;;;;;;2.03;1.40;;;;;;;;;;5052599;28;20470;-50
2021/05/26 11:18:10;;;;;;;4.10;1.23;;;;;;;;;;5052379;28;20422;-51
2021/05/26 11:20:36;;;;;;;1.50;1.40;;;;;;;;;;5052690;28;20671;-49
2021/05/26 11:23:10;;;;;;;2.10;1.40;;;;;;;;;;5052121;28;20831;-50
2021/05/26 11:25:36;;;;;;;1.47;1.37;;;;;;;;;;5052374;28;20442;-50
2021/05/26 11:28:02;;;;;;;3.60;1.20;;;;;;;;;;5052801;28;20931;-49
2021/05/26 11:30:28;;;;;;;2.07;1.50;;;;;;;;;;5052437;28;20421;-49
2021/05/26 11:32:55;;;;;;;1.20;1.10;;;;;;;;;;5051983;28;20412;-50
2021/05/26 11:35:21;;;;;;;2.10;1.23;;;;;;;;;;5051293;28;20409;-49
2021/05/26 11:37:47;;;;;;;0.97;0.97;;;;;;;;;;5051693;28;20539;-50
2021/05/26 11:40:17;;;;;;;1.20;1.17;;;;;;;;;;5051306;28;20765;-50
2021/05/26 11:42:43;;;;;;;6.23;1.33;;;;;;;;;;5051690;28;20436;-50
2021/05/26 11:45:11;;;;;;;3.23;2.03;;;;;;;;;;5052127;28;20397;-50
2021/05/26 11:47:43;;;;;;;1.47;1.20;;;;;;;;;;5052079;28;20575;-51
2021/05/26 11:50:12;;;;;;;1.50;1.40;;;;;;;;;;5052065;28;20405;-50
2021/05/26 11:52:38;;;;;;;1.30;1.20;;;;;;;;;;5051662;28;20493;-50
2021/05/26 11:55:04;;;;;;;1.40;1.23;;;;;;;;;;5051709;28;20500;-50
2021/05/26 11:57:33;;;;;;;1.30;1.20;;;;;;;;;;5051594;28;20464;-50
2021/05/26 11:59:59;;;;;;;1.30;1.20;;;;;;;;;;5051575;28;20397;-50
2021/05/26 12:02:25;;;;;;;1.53;1.43;;;;;;;;;;5051434;28;20401;-50
2021/05/26 12:04:51;;;;;;;1.20;1.10;;;;;;;;;;5051021;28;20459;-50
2021/05/26 12:07:27;;;;;;;5.23;1.17;;;;;;;;;;5051404;28;20437;-50
2021/05/26 12:09:57;;;;;;;1.23;1.13;;;;;;;;;;5051442;28;20752;-50
2021/05/26 12:12:23;;;;;;;1.43;1.33;;;;;;;;;;5051252;28;20401;-50
2021/05/26 12:14:50;;;;;;;2.07;1.00;;;;;;;;;;5051433;28;20401;-50
2021/05/26 12:17:17;;;;;;;1.07;1.07;;;;;;;;;;5051242;28;20459;-50
2021/05/26 12:19:44;;;;;;;1.30;1.20;;;;;;;;;;5051191;28;20408;-49
2021/05/26 12:22:14;;;;;;;4.20;1.60;;;;;;;;;;5051245;28;20425;-50
2021/05/26 12:24:49;;;;;;;3.10;1.40;;;;;;;;;;5051289;28;20488;-50
2021/05/26 12:27:29;;;;;;;1.30;1.20;;;;;;;;;;5050913;28;20405;-50
2021/05/26 12:29:55;;;;;;;5.00;1.23;;;;;;;;;;5051252;28;20404;-50
2021/05/26 12:32:25;;;;;;;2.73;1.37;;;;;;;;;;5049513;28;20436;-50
2021/05/26 12:35:00;;;;;;;2.10;1.50;;;;;;;;;;5050990;28;20409;-50
2021/05/26 12:37:39;;;;;;;1.80;1.53;;;;;;;;;;5050645;28;20522;-50
2021/05/26 12:40:05;;;;;;;2.60;1.30;;;;;;;;;;5051082;28;20418;-50
2021/05/26 12:42:39;;;;;;;2.77;1.30;;;;;;;;;;5050357;28;20368;-50
2021/05/26 12:45:17;;;;;;;1.60;1.47;;;;;;;;;;5050986;28;20404;-49
2021/05/26 12:47:43;;;;;;;2.63;1.60;;;;;;;;;;5050601;28;20940;-50
2021/05/26 12:50:13;;;;;;;1.83;1.50;;;;;;;;;;5050790;28;20484;-50
2021/05/26 12:52:39;;;;;;;1.43;1.33;;;;;;;;;;5050573;28;20484;-49
2021/05/26 12:55:06;;;;;;;2.00;1.53;;;;;;;;;;5050477;28;20765;-50
2021/05/26 12:57:32;;;;;;;2.47;1.40;;;;;;;;;;5050819;28;20456;-50
2021/05/26 12:59:59;;;;;;;1.63;1.53;;;;;;;;;;5050621;28;21133;-50
2021/05/26 13:02:40;;;;;;;1.50;1.40;;;;;;;;;;5050448;28;20907;-50
2021/05/26 13:05:08;;;;;;;1.80;1.70;;;;;;;;;;5050561;28;20768;-51
2021/05/26 13:07:40;;;;;;;2.37;1.80;;;;;;;;;;5050420;28;20437;-49
2021/05/26 13:10:25;;;;;;;1.80;1.60;;;;;;;;;;5050434;28;20463;-50
2021/05/26 13:12:52;;;;;;;2.73;1.93;;;;;;;;;;5050390;28;20458;-50
2021/05/26 13:15:24;;;;;;;2.40;2.07;;;;;;;;;;5050305;28;20483;-50
2021/05/26 13:17:54;;;;;;;2.57;2.20;;;;;;;;;;5049730;28;20492;-50
2021/05/26 13:20:26;;;;;;;2.50;2.30;;;;;;;;;;5050646;28;20788;-50
2021/05/26 13:22:53;;;;;;;3.10;1.90;;;;;;;;;;5050149;28;20430;-50
2021/05/26 13:25:20;;;;;;;1.77;1.67;;;;;;;;;;5050430;28;20394;-49
2021/05/26 13:27:51;;;;;;;2.10;1.97;;;;;;;;;;5050284;28;20474;-49
2021/05/26 13:30:17;;;;;;;1.97;1.77;;;;;;;;;;5050795;28;20393;-50
2021/05/26 13:32:43;;;;;;;1.70;1.60;;;;;;;;;;5050002;28;20438;-50
2021/05/26 13:35:09;;;;;;;4.83;1.70;;;;;;;;;;5050354;28;20401;-50
2021/05/26 13:37:35;;;;;;;4.07;1.50;;;;;;;;;;5050081;28;20473;-51
2021/05/26 13:40:01;;;;;;;2.53;1.30;;;;;;;;;;5050283;28;20393;-50
2021/05/26 13:42:27;;;;;;;1.63;1.43;;;;;;;;;;5050147;28;20408;-50
2021/05/26 13:44:53;;;;;;;1.50;1.40;;;;;;;;;;5050514;28;20405;-50
2021/05/26 13:47:19;;;;;;;1.50;1.40;;;;;;;;;;5050338;28;20789;-51
2021/05/26 13:49:45;;;;;;;6.23;1.50;;;;;;;;;;5050384;28;20401;-50
2021/05/26 13:52:11;;;;;;;2.40;1.60;;;;;;;;;;5050246;28;20405;-51
2021/05/26 13:54:37;;;;;;;2.20;2.00;;;;;;;;;;5050091;28;20397;-51
2021/05/26 13:57:03;;;;;;;1.97;1.77;;;;;;;;;;5050152;28;20480;-51
2021/05/26 13:59:29;;;;;;;1.80;1.70;;;;;;;;;;5050018;28;20849;-51
2021/05/26 14:01:55;;;;;;;4.10;1.70;;;;;;;;;;5049908;28;20488;-51
2021/05/26 14:04:21;;;;;;;3.07;2.10;;;;;;;;;;5050128;28;20909;-51
2021/05/26 14:06:48;;;;;;;4.83;2.80;;;;;;;;;;5050073;28;20872;-51
2021/05/26 14:09:13;;;;;;;2.77;2.57;;;;;;;;;;5049971;28;20937;-51
2021/05/26 14:11:39;;;;;;;2.03;1.80;;;;;;;;;;5049716;28;20448;-50
2021/05/26 14:14:05;;;;;;;4.80;2.77;;;;;;;;;;5049675;28;20412;-50
2021/05/26 14:16:31;;;;;;;5.50;4.77;;;;;;;;;;5050021;28;20548;-50
2021/05/26 14:18:57;;;;;;;15.23;6.50;;;;;;;;;;5050018;28;20852;-50
2021/05/26 14:21:23;;;;;;;18.27;6.60;;;;;;;;;;5049780;28;20394;-50
2021/05/26 14:23:50;;;;;;;8.67;5.83;;;;;;;;;;5049846;28;20397;-50
2021/05/26 14:26:17;;;;;;;9.33;8.43;;;;;;;;;;5049907;28;20409;-50
2021/05/26 14:28:43;;;;;;;6.57;5.93;;;;;;;;;;5052386;28;20901;-49
2021/05/26 14:31:09;;;;;;;7.60;6.07;;;;;;;;;;5053383;28;20401;-49
2021/05/26 14:33:35;;;;;;;6.80;6.20;;;;;;;;;;5051928;28;20413;-50
2021/05/26 14:36:01;;;;;;;7.27;5.90;;;;;;;;;;5053265;28;20953;-50
2021/05/26 14:41:00;;;;;;;7.60;5.00;;;;;;;;;;5053289;28;20915;-50
2021/05/26 14:43:27;;;;;;;6.53;4.70;;;;;;;;;;5052673;28;20454;-50
2021/05/26 14:45:55;;;;;;;4.50;4.10;;;;;;;;;;5057514;28;20512;-51
2021/05/26 14:48:22;;;;;;;5.47;4.97;;;;;;;;;;5052635;28;20939;-50